Bend, Oregon
Current Conditions -  °F | °C
As of 6:15 PM on Friday 24 Oct 2014 (Local Time) from KBDN Reporting Station
Moderate Fog Moderate Fog  
Wind Chill: 43°   Ceiling: 100
Heat Index: 46°   Visibility: 0.5mi
Dew Point: 46°   Wind: 7mph
Humidity: 100%   Direction: 340°NNW
Pressure: 29.89"   Gusts: NA
Location:  44.06°N, 121.31°W
Report Text: KBDN 250115Z AUTO 34006KT 1/2SM FG OVC001 08/08 A2989 RMK AO2
Loading
Personal Weather Stations






























Interactive Weather Map New forecast layout! Learn more

10-Day Weather Forecast

Advertisements
Track Severe Weather on mobile